Time,TemperatureF,DewpointF,PressureIn,WindDirection,WindDirectionDegrees,WindSpeedMPH,WindSpeedGustMPH,Humidity,HourlyPrecipIn,Conditions,Clouds,dailyrainin,SoftwareType,DateUTC
2013-01-18 00:14:00,42.6,36.0,30.15,WNW,300,5.0,14.0,76,0.00,,,0.00,weatherlink.com 1.10,2013-01-18 05:14:00,
2013-01-18 00:29:00,42.5,35.0,30.16,NW,321,11.0,15.0,76,0.00,,,0.00,weatherlink.com 1.10,2013-01-18 05:29:00,
2013-01-18 00:44:00,42.3,35.0,30.16,WNW,298,4.0,14.0,76,0.00,,,0.00,weatherlink.com 1.10,2013-01-18 05:44:00,
2013-01-18 00:59:00,42.0,35.0,30.17,WNW,292,9.0,15.0,77,0.00,,,0.00,weatherlink.com 1.10,2013-01-18 05:59:00,
2013-01-18 01:14:00,41.7,35.0,30.18,WNW,303,9.0,12.0,78,0.00,,,0.00,weatherlink.com 1.10,2013-01-18 06:14:00,
2013-01-18 01:29:00,41.6,36.0,30.19,NNW,344,1.0,15.0,79,0.00,,,0.00,weatherlink.com 1.10,2013-01-18 06:29:00,
2013-01-18 01:44:00,41.6,36.0,30.19,NNE,15,11.0,14.0,79,0.00,,,0.00,weatherlink.com 1.10,2013-01-18 06:44:00,
2013-01-18 01:59:00,42.2,36.0,30.20,NW,311,6.0,17.0,79,0.00,,,0.00,weatherlink.com 1.10,2013-01-18 06:59:00,
2013-01-18 02:14:00,42.6,36.0,30.20,NNW,331,3.0,15.0,78,0.00,,,0.00,weatherlink.com 1.10,2013-01-18 07:14:00,
2013-01-18 02:29:00,42.6,36.0,30.20,NW,317,7.0,13.0,78,0.00,,,0.00,weatherlink.com 1.10,2013-01-18 07:29:00,
2013-01-18 02:44:00,42.6,37.0,30.20,NNW,341,9.0,17.0,79,0.00,,,0.00,weatherlink.com 1.10,2013-01-18 07:44:00,
2013-01-18 02:59:00,42.5,36.0,30.19,NNW,328,3.0,13.0,79,0.00,,,0.00,weatherlink.com 1.10,2013-01-18 07:59:00,
2013-01-18 03:14:00,42.2,36.0,30.20,NNW,340,6.0,13.0,80,0.00,,,0.00,weatherlink.com 1.10,2013-01-18 08:14:00,
2013-01-18 03:29:00,41.9,37.0,30.20,NNW,342,7.0,10.0,81,0.00,,,0.00,weatherlink.com 1.10,2013-01-18 08:29:00,
2013-01-18 03:44:00,41.9,37.0,30.20,NNE,28,4.0,9.0,81,0.00,,,0.00,weatherlink.com 1.10,2013-01-18 08:44:00,
2013-01-18 03:59:00,42.0,37.0,30.21,North,360,5.0,10.0,82,0.00,,,0.00,weatherlink.com 1.10,2013-01-18 08:59:00,
2013-01-18 04:14:00,42.4,37.0,30.21,NNW,347,4.0,9.0,81,0.00,,,0.00,weatherlink.com 1.10,2013-01-18 09:14:00,
2013-01-18 04:29:00,42.7,38.0,30.21,North,355,3.0,12.0,82,0.00,,,0.00,weatherlink.com 1.10,2013-01-18 09:29:00,
2013-01-18 04:44:00,43.3,38.0,30.22,North,349,5.0,11.0,81,0.00,,,0.00,weatherlink.com 1.10,2013-01-18 09:44:00,
2013-01-18 04:59:00,43.5,38.0,30.22,NNW,340,4.0,9.0,81,0.00,,,0.00,weatherlink.com 1.10,2013-01-18 09:59:00,
2013-01-18 05:14:00,43.9,38.0,30.23,NNW,336,6.0,9.0,81,0.00,,,0.00,weatherlink.com 1.10,2013-01-18 10:14:00,
2013-01-18 05:29:00,44.2,39.0,30.23,NNE,12,5.0,10.0,81,0.00,,,0.00,weatherlink.com 1.10,2013-01-18 10:29:00,
2013-01-18 05:44:00,44.4,39.0,30.24,NNE,12,2.0,7.0,82,0.00,,,0.00,weatherlink.com 1.10,2013-01-18 10:44:00,
2013-01-18 05:59:00,44.7,40.0,30.25,NNW,342,5.0,8.0,82,0.00,,,0.00,weatherlink.com 1.10,2013-01-18 10:59:00,
2013-01-18 06:14:00,45.0,40.0,30.25,NNE,22,9.0,9.0,83,0.00,,,0.00,weatherlink.com 1.10,2013-01-18 11:14:00,
2013-01-18 06:29:00,45.3,40.0,30.26,North,5,1.0,7.0,83,0.00,,,0.00,weatherlink.com 1.10,2013-01-18 11:29:00,
2013-01-18 06:45:00,45.5,41.0,30.27,NNW,339,4.0,9.0,84,0.00,,,0.00,weatherlink.com 1.10,2013-01-18 11:45:00,
2013-01-18 07:00:00,45.6,41.0,30.28,North,5,3.0,7.0,84,0.00,,,0.00,weatherlink.com 1.10,2013-01-18 12:00:00,
2013-01-18 07:15:00,45.9,42.0,30.28,North,360,2.0,9.0,85,0.00,,,0.00,weatherlink.com 1.10,2013-01-18 12:15:00,
2013-01-18 07:30:00,46.2,42.0,30.29,North,355,3.0,8.0,86,0.00,,,0.00,weatherlink.com 1.10,2013-01-18 12:30:00,
2013-01-18 07:45:00,47.9,45.0,30.30,North,10,13.0,15.0,88,0.00,,,0.00,weatherlink.com 1.10,2013-01-18 12:45:00,
2013-01-18 08:00:00,51.3,46.0,30.30,ENE,57,14.0,17.0,81,0.00,,,0.00,weatherlink.com 1.10,2013-01-18 13:00:00,
2013-01-18 08:15:00,52.3,46.0,30.31,ENE,74,8.0,24.0,79,0.00,,,0.00,weatherlink.com 1.10,2013-01-18 13:15:00,
2013-01-18 08:30:00,52.9,46.0,30.32,NNE,27,10.0,22.0,78,0.00,,,0.00,weatherlink.com 1.10,2013-01-18 13:30:00,
2013-01-18 08:45:00,53.5,45.0,30.32,NE,40,6.0,20.0,74,0.00,,,0.00,weatherlink.com 1.10,2013-01-18 13:45:00,
2013-01-18 09:00:00,53.9,46.0,30.33,NE,53,7.0,18.0,74,0.00,,,0.00,weatherlink.com 1.10,2013-01-18 14:00:00,
2013-01-18 09:15:00,54.2,46.0,30.34,NNE,21,12.0,23.0,75,0.00,,,0.00,weatherlink.com 1.10,2013-01-18 14:15:00,
2013-01-18 09:30:00,54.3,47.0,30.35,NE,40,4.0,21.0,75,0.00,,,0.00,weatherlink.com 1.10,2013-01-18 14:30:00,
2013-01-18 09:45:00,54.3,47.0,30.36,ENE,73,8.0,21.0,75,0.00,,,0.00,weatherlink.com 1.10,2013-01-18 14:45:00,
2013-01-18 10:00:00,54.7,47.0,30.36,NNE,32,10.0,24.0,74,0.00,,,0.00,weatherlink.com 1.10,2013-01-18 15:00:00,
2013-01-18 10:15:00,55.0,47.0,30.37,NE,34,8.0,18.0,74,0.00,,,0.00,weatherlink.com 1.10,2013-01-18 15:15:00,
2013-01-18 10:30:00,55.3,48.0,30.38,NNE,32,5.0,20.0,75,0.00,,,0.00,weatherlink.com 1.10,2013-01-18 15:30:00,
2013-01-18 10:45:00,55.6,47.0,30.37,NE,45,11.0,19.0,74,0.00,,,0.00,weatherlink.com 1.10,2013-01-18 15:45:00,
2013-01-18 11:00:00,55.8,47.0,30.38,East,101,6.0,18.0,73,0.00,,,0.00,weatherlink.com 1.10,2013-01-18 16:00:00,
2013-01-18 11:15:00,56.5,48.0,30.38,NNE,26,14.0,21.0,72,0.00,,,0.00,weatherlink.com 1.10,2013-01-18 16:15:00,
2013-01-18 11:30:00,57.1,48.0,30.37,NNE,22,10.0,22.0,71,0.00,,,0.00,weatherlink.com 1.10,2013-01-18 16:30:00,
2013-01-18 11:45:00,58.1,49.0,30.37,NNE,19,7.0,19.0,71,0.00,,,0.00,weatherlink.com 1.10,2013-01-18 16:45:00,
2013-01-18 12:00:00,59.6,49.0,30.36,East,80,11.0,28.0,68,0.00,,,0.00,weatherlink.com 1.10,2013-01-18 17:00:00,
2013-01-18 12:15:00,60.4,49.0,30.36,NE,40,21.0,21.0,66,0.00,,,0.00,weatherlink.com 1.10,2013-01-18 17:15:00,
2013-01-18 12:30:00,60.4,49.0,30.36,NE,46,10.0,27.0,66,0.00,,,0.00,weatherlink.com 1.10,2013-01-18 17:30:00,
2013-01-18 12:46:00,60.0,49.0,30.36,NNE,15,11.0,20.0,67,0.00,,,0.00,weatherlink.com 1.10,2013-01-18 17:46:00,
2013-01-18 13:01:00,60.0,49.0,30.36,NE,50,13.0,25.0,66,0.00,,,0.00,weatherlink.com 1.10,2013-01-18 18:01:00,
2013-01-18 13:16:00,60.1,49.0,30.36,NNE,32,14.0,26.0,67,0.00,,,0.00,weatherlink.com 1.10,2013-01-18 18:16:00,
2013-01-18 13:31:00,60.6,50.0,30.36,NE,40,16.0,24.0,67,0.00,,,0.00,weatherlink.com 1.10,2013-01-18 18:31:00,
2013-01-18 13:46:00,60.2,48.0,30.36,NNW,342,8.0,24.0,65,0.00,,,0.00,weatherlink.com 1.10,2013-01-18 18:46:00,
2013-01-18 14:01:00,59.8,49.0,30.36,East,92,10.0,22.0,67,0.00,,,0.00,weatherlink.com 1.10,2013-01-18 19:01:00,
2013-01-18 14:16:00,60.3,49.0,30.35,NE,36,7.0,21.0,66,0.00,,,0.00,weatherlink.com 1.10,2013-01-18 19:16:00,
2013-01-18 14:31:00,60.3,48.0,30.35,NE,46,9.0,23.0,65,0.00,,,0.00,weatherlink.com 1.10,2013-01-18 19:31:00,
2013-01-18 14:46:00,59.5,48.0,30.36,NE,35,12.0,23.0,66,0.00,,,0.00,weatherlink.com 1.10,2013-01-18 19:46:00,
2013-01-18 15:01:00,59.1,47.0,30.36,NE,37,20.0,26.0,65,0.00,,,0.00,weatherlink.com 1.10,2013-01-18 20:01:00,
2013-01-18 15:16:00,59.3,47.0,30.36,ESE,108,24.0,24.0,64,0.00,,,0.00,weatherlink.com 1.10,2013-01-18 20:16:00,
2013-01-18 15:31:00,58.7,47.0,30.36,ENE,67,12.0,25.0,65,0.00,,,0.00,weatherlink.com 1.10,2013-01-18 20:31:00,
2013-01-18 15:46:00,59.0,47.0,30.36,NNE,13,12.0,18.0,65,0.00,,,0.00,weatherlink.com 1.10,2013-01-18 20:46:00,
2013-01-18 16:01:00,58.4,47.0,30.37,NE,35,11.0,23.0,65,0.00,,,0.00,weatherlink.com 1.10,2013-01-18 21:01:00,
2013-01-18 16:16:00,58.1,46.0,30.37,ENE,61,8.0,21.0,65,0.00,,,0.00,weatherlink.com 1.10,2013-01-18 21:16:00,
2013-01-18 16:31:00,57.7,45.0,30.38,ENE,65,7.0,21.0,64,0.00,,,0.00,weatherlink.com 1.10,2013-01-18 21:31:00,
2013-01-18 16:46:00,57.0,45.0,30.37,North,9,7.0,25.0,65,0.00,,,0.00,weatherlink.com 1.10,2013-01-18 21:46:00,
2013-01-18 17:01:00,56.0,45.0,30.38,ENE,57,12.0,18.0,67,0.00,,,0.00,weatherlink.com 1.10,2013-01-18 22:01:00,
2013-01-18 17:16:00,55.3,44.0,30.38,NE,44,7.0,20.0,67,0.00,,,0.00,weatherlink.com 1.10,2013-01-18 22:16:00,
2013-01-18 17:31:00,54.7,45.0,30.38,NNE,24,11.0,18.0,69,0.00,,,0.00,weatherlink.com 1.10,2013-01-18 22:31:00,
2013-01-18 17:46:00,54.2,45.0,30.38,NNE,32,9.0,18.0,71,0.00,,,0.00,weatherlink.com 1.10,2013-01-18 22:46:00,
2013-01-18 18:01:00,53.6,45.0,30.38,NE,50,7.0,17.0,73,0.00,,,0.00,weatherlink.com 1.10,2013-01-18 23:01:00,
2013-01-18 18:16:00,53.4,45.0,30.38,NE,38,3.0,15.0,74,0.00,,,0.00,weatherlink.com 1.10,2013-01-18 23:16:00,
2013-01-18 18:31:00,53.3,45.0,30.39,NE,49,12.0,16.0,74,0.00,,,0.00,weatherlink.com 1.10,2013-01-18 23:31:00,
2013-01-18 18:46:00,53.2,45.0,30.40,NNE,30,8.0,17.0,75,0.00,,,0.00,weatherlink.com 1.10,2013-01-18 23:46:00,
2013-01-18 19:01:00,53.4,46.0,30.40,NE,55,10.0,15.0,75,0.00,,,0.00,weatherlink.com 1.10,2013-01-19 00:01:00,
2013-01-18 19:16:00,53.7,46.0,30.40,NE,54,9.0,18.0,75,0.00,,,0.00,weatherlink.com 1.10,2013-01-19 00:16:00,
2013-01-18 19:31:00,53.5,46.0,30.40,NNE,21,6.0,15.0,76,0.00,,,0.00,weatherlink.com 1.10,2013-01-19 00:31:00,
2013-01-18 19:46:00,53.3,46.0,30.39,NE,34,5.0,14.0,76,0.00,,,0.00,weatherlink.com 1.10,2013-01-19 00:46:00,
2013-01-18 20:01:00,53.3,46.0,30.40,NNE,31,4.0,16.0,77,0.00,,,0.00,weatherlink.com 1.10,2013-01-19 01:01:00,
2013-01-18 20:16:00,53.8,47.0,30.39,NE,37,6.0,19.0,77,0.00,,,0.00,weatherlink.com 1.10,2013-01-19 01:16:00,
2013-01-18 20:31:00,54.3,47.0,30.40,East,83,9.0,12.0,76,0.00,,,0.00,weatherlink.com 1.10,2013-01-19 01:31:00,
2013-01-18 20:46:00,54.1,47.0,30.40,NE,46,12.0,16.0,76,0.00,,,0.00,weatherlink.com 1.10,2013-01-19 01:46:00,
2013-01-18 21:01:00,54.1,47.0,30.39,NNE,24,5.0,16.0,77,0.00,,,0.00,weatherlink.com 1.10,2013-01-19 02:01:00,
2013-01-18 21:16:00,54.1,47.0,30.39,NE,55,7.0,17.0,78,0.00,,,0.00,weatherlink.com 1.10,2013-01-19 02:16:00,
2013-01-18 21:31:00,54.1,47.0,30.39,ENE,66,3.0,14.0,78,0.00,,,0.00,weatherlink.com 1.10,2013-01-19 02:31:00,
2013-01-18 21:46:00,54.4,48.0,30.39,NE,42,14.0,16.0,78,0.00,,,0.00,weatherlink.com 1.10,2013-01-19 02:46:00,
2013-01-18 22:01:00,54.1,48.0,30.39,NE,42,11.0,15.0,79,0.00,,,0.00,weatherlink.com 1.10,2013-01-19 03:01:00,
2013-01-18 22:16:00,54.1,48.0,30.38,NE,50,5.0,16.0,80,0.00,,,0.00,weatherlink.com 1.10,2013-01-19 03:16:00,
2013-01-18 22:31:00,54.0,48.0,30.37,NNE,29,5.0,16.0,80,0.00,,,0.00,weatherlink.com 1.10,2013-01-19 03:31:00,
2013-01-18 23:01:00,53.8,48.0,30.37,NE,39,10.0,16.0,81,0.00,,,0.00,weatherlink.com 1.10,2013-01-19 04:01:00,
2013-01-18 23:16:00,53.9,49.0,30.36,NE,53,7.0,13.0,82,0.00,,,0.00,weatherlink.com 1.10,2013-01-19 04:16:00,
2013-01-18 23:31:00,54.2,49.0,30.36,NE,47,7.0,11.0,81,0.00,,,0.00,weatherlink.com 1.10,2013-01-19 04:31:00,